sensor_id;sensor_type;location;lat;lon;timestamp;pressure;altitude;pressure_sealevel;temperature;humidity
26915;BME280;14480;52.608;13.416;2022-10-17T06:49:32;111587.56;;;-144.42;100.00
26915;BME280;14480;52.608;13.416;2022-10-17T06:54:52;111587.56;;;-144.42;100.00
26915;BME280;14480;52.608;13.416;2022-10-17T07:00:08;111587.56;;;-144.42;100.00
26915;BME280;14480;52.608;13.416;2022-10-17T07:05:19;111587.56;;;-144.42;100.00
26915;BME280;14480;52.608;13.416;2022-10-17T07:10:25;111587.56;;;-144.42;100.00
26915;BME280;14480;52.608;13.416;2022-10-17T07:15:28;111587.56;;;-144.42;100.00
26915;BME280;14480;52.608;13.416;2022-10-17T07:20:35;111587.56;;;-144.42;100.00
26915;BME280;14480;52.608;13.416;2022-10-17T07:25:39;111587.56;;;-144.42;100.00
26915;BME280;14480;52.608;13.416;2022-10-17T07:30:43;111587.56;;;-144.42;100.00
26915;BME280;14480;52.608;13.416;2022-10-17T07:35:53;111587.56;;;-144.42;100.00
26915;BME280;14480;52.608;13.416;2022-10-17T07:40:58;111587.56;;;-144.42;100.00
26915;BME280;14480;52.608;13.416;2022-10-17T07:46:02;111587.56;;;-144.42;100.00
26915;BME280;14480;52.608;13.416;2022-10-17T07:51:09;111587.56;;;-144.42;100.00
26915;BME280;14480;52.608;13.416;2022-10-17T07:56:12;111587.56;;;-144.42;100.00
26915;BME280;14480;52.608;13.416;2022-10-17T08:01:18;111587.56;;;-144.42;100.00
26915;BME280;14480;52.608;13.416;2022-10-17T08:06:23;111587.56;;;-144.42;100.00
26915;BME280;14480;52.608;13.416;2022-10-17T08:11:26;111587.56;;;-144.42;100.00
26915;BME280;14480;52.608;13.416;2022-10-17T08:16:30;111587.56;;;-144.42;100.00
26915;BME280;14480;52.608;13.416;2022-10-17T08:21:35;111587.56;;;-144.42;100.00
26915;BME280;14480;52.608;13.416;2022-10-17T08:26:38;111587.56;;;-144.42;100.00
26915;BME280;14480;52.608;13.416;2022-10-17T08:31:45;111587.56;;;-144.42;100.00
26915;BME280;14480;52.608;13.416;2022-10-17T08:36:53;111587.56;;;-144.42;100.00
26915;BME280;14480;52.608;13.416;2022-10-17T08:42:01;111587.56;;;-144.42;100.00
26915;BME280;14480;52.608;13.416;2022-10-17T08:47:08;111587.56;;;-144.42;100.00
26915;BME280;14480;52.608;13.416;2022-10-17T08:52:17;111587.56;;;-144.42;100.00
26915;BME280;14480;52.608;13.416;2022-10-17T08:57:22;111587.56;;;-144.42;100.00
26915;BME280;14480;52.608;13.416;2022-10-17T09:02:34;111587.56;;;-144.42;100.00
26915;BME280;14480;52.608;13.416;2022-10-17T09:07:46;111587.56;;;-144.42;100.00
26915;BME280;14480;52.608;13.416;2022-10-17T09:12:56;111587.56;;;-144.42;100.00
26915;BME280;14480;52.608;13.416;2022-10-17T09:18:09;111587.56;;;-144.42;100.00
26915;BME280;14480;52.608;13.416;2022-10-17T09:23:18;111587.56;;;-144.42;100.00
26915;BME280;14480;52.608;13.416;2022-10-17T09:28:26;111587.56;;;-144.42;100.00
26915;BME280;14480;52.608;13.416;2022-10-17T09:33:33;111587.56;;;-144.42;100.00
26915;BME280;14480;52.608;13.416;2022-10-17T09:38:57;111587.56;;;-144.42;100.00
26915;BME280;14480;52.608;13.416;2022-10-17T09:44:07;111587.56;;;-144.42;100.00
26915;BME280;14480;52.608;13.416;2022-10-17T09:49:14;111587.56;;;-144.42;100.00
26915;BME280;14480;52.608;13.416;2022-10-17T09:54:21;111587.56;;;-144.42;100.00
26915;BME280;14480;52.608;13.416;2022-10-17T09:59:29;111587.56;;;-144.42;100.00
26915;BME280;14480;52.608;13.416;2022-10-17T10:04:36;111587.56;;;-144.42;100.00
26915;BME280;14480;52.608;13.416;2022-10-17T10:10:02;111587.56;;;-144.42;100.00
26915;BME280;14480;52.608;13.416;2022-10-17T10:20:26;111587.56;;;-144.42;100.00
26915;BME280;14480;52.608;13.416;2022-10-17T10:25:31;111587.56;;;-144.42;100.00
26915;BME280;14480;52.608;13.416;2022-10-17T10:30:35;111587.56;;;-144.42;100.00
26915;BME280;14480;52.608;13.416;2022-10-17T10:35:41;111587.56;;;-144.42;100.00
26915;BME280;14480;52.608;13.416;2022-10-17T10:40:46;111587.56;;;-144.42;100.00
26915;BME280;14480;52.608;13.416;2022-10-17T10:45:50;111587.56;;;-144.42;100.00
26915;BME280;14480;52.608;13.416;2022-10-17T10:50:55;111587.56;;;-144.42;100.00
26915;BME280;14480;52.608;13.416;2022-10-17T10:56:02;111587.56;;;-144.42;100.00
26915;BME280;14480;52.608;13.416;2022-10-17T11:01:11;111587.56;;;-144.42;100.00
26915;BME280;14480;52.608;13.416;2022-10-17T11:06:18;111587.56;;;-144.42;100.00
26915;BME280;14480;52.608;13.416;2022-10-17T11:11:28;111587.56;;;-144.42;100.00
26915;BME280;14480;52.608;13.416;2022-10-17T11:16:34;111587.56;;;-144.42;100.00
26915;BME280;14480;52.608;13.416;2022-10-17T11:21:41;111587.56;;;-144.42;100.00
26915;BME280;14480;52.608;13.416;2022-10-17T11:26:49;111587.56;;;-144.42;100.00
26915;BME280;14480;52.608;13.416;2022-10-17T11:31:55;111587.56;;;-144.42;100.00
26915;BME280;14480;52.608;13.416;2022-10-17T11:37:04;111587.56;;;-144.42;100.00
26915;BME280;14480;52.608;13.416;2022-10-17T11:42:11;111587.56;;;-144.42;100.00
26915;BME280;14480;52.608;13.416;2022-10-17T11:47:20;111587.56;;;-144.42;98.77
26915;BME280;14480;52.608;13.416;2022-10-17T11:52:27;111587.56;;;-144.42;97.93
26915;BME280;14480;52.608;13.416;2022-10-17T11:58:00;111587.56;;;-144.42;96.46
26915;BME280;14480;52.608;13.416;2022-10-17T12:03:17;111587.56;;;-144.42;96.34
26915;BME280;14480;52.608;13.416;2022-10-17T12:08:23;111587.56;;;-144.42;96.12
26915;BME280;14480;52.608;13.416;2022-10-17T12:14:09;111587.56;;;-144.42;94.01
26915;BME280;14480;52.608;13.416;2022-10-17T12:19:30;111587.56;;;-144.42;93.34
26915;BME280;14480;52.608;13.416;2022-10-17T12:24:36;111587.56;;;-144.42;92.02
26915;BME280;14480;52.608;13.416;2022-10-17T12:29:44;111587.56;;;-144.42;91.85
26915;BME280;14480;52.608;13.416;2022-10-17T12:34:50;111587.56;;;-144.42;91.08
26915;BME280;14480;52.608;13.416;2022-10-17T12:39:53;111587.56;;;-144.42;91.87
26915;BME280;14480;52.608;13.416;2022-10-17T12:44:58;111587.56;;;-144.42;90.14
26915;BME280;14480;52.608;13.416;2022-10-17T12:50:07;111587.56;;;-144.42;91.87
26915;BME280;14480;52.608;13.416;2022-10-17T12:55:29;111587.56;;;-144.42;91.38
26915;BME280;14480;52.608;13.416;2022-10-17T13:00:33;111587.56;;;-144.42;91.06
26915;BME280;14480;52.608;13.416;2022-10-17T13:05:40;111587.56;;;-144.42;91.42
26915;BME280;14480;52.608;13.416;2022-10-17T13:10:46;111587.56;;;-144.42;91.31
26915;BME280;14480;52.608;13.416;2022-10-17T13:15:53;111587.56;;;-144.42;91.92
26915;BME280;14480;52.608;13.416;2022-10-17T13:21:00;111587.56;;;-144.42;90.27
26915;BME280;14480;52.608;13.416;2022-10-17T13:26:17;111587.56;;;-144.42;93.48
26915;BME280;14480;52.608;13.416;2022-10-17T13:31:25;111587.56;;;-144.42;95.47
26915;BME280;14480;52.608;13.416;2022-10-17T13:36:32;111587.56;;;-144.42;94.97
26915;BME280;14480;52.608;13.416;2022-10-17T13:41:37;111587.56;;;-144.42;94.30
26915;BME280;14480;52.608;13.416;2022-10-17T13:46:47;111587.56;;;-144.42;93.21
26915;BME280;14480;52.608;13.416;2022-10-17T13:51:53;111587.56;;;-144.42;92.77
26915;BME280;14480;52.608;13.416;2022-10-17T13:56:59;111587.56;;;-144.42;92.34
26915;BME280;14480;52.608;13.416;2022-10-17T14:02:05;111587.56;;;-144.42;94.79
26915;BME280;14480;52.608;13.416;2022-10-17T14:07:18;111587.56;;;-144.42;96.91
26915;BME280;14480;52.608;13.416;2022-10-17T14:12:24;111587.56;;;-144.42;94.24
26915;BME280;14480;52.608;13.416;2022-10-17T14:17:28;111587.56;;;-144.42;94.55
26915;BME280;14480;52.608;13.416;2022-10-17T14:22:35;111587.56;;;-144.42;96.64
26915;BME280;14480;52.608;13.416;2022-10-17T14:27:53;111587.56;;;-144.42;95.64
26915;BME280;14480;52.608;13.416;2022-10-17T14:33:04;111587.56;;;-144.42;96.17
26915;BME280;14480;52.608;13.416;2022-10-17T14:38:11;111587.56;;;-144.42;94.91
26915;BME280;14480;52.608;13.416;2022-10-17T14:43:18;111587.56;;;-144.42;96.31
26915;BME280;14480;52.608;13.416;2022-10-17T14:48:22;111587.56;;;-144.42;96.88
26915;BME280;14480;52.608;13.416;2022-10-17T14:53:26;111587.56;;;-144.42;95.62
26915;BME280;14480;52.608;13.416;2022-10-17T15:04:03;111587.56;;;-144.42;97.97
26915;BME280;14480;52.608;13.416;2022-10-17T15:09:08;111587.56;;;-144.42;99.97
26915;BME280;14480;52.608;13.416;2022-10-17T15:14:19;111587.56;;;-144.42;100.00
26915;BME280;14480;52.608;13.416;2022-10-17T15:30:15;111587.56;;;-144.42;100.00
26915;BME280;14480;52.608;13.416;2022-10-17T15:35:24;111587.56;;;-144.42;100.00
26915;BME280;14480;52.608;13.416;2022-10-17T15:40:27;111587.56;;;-144.42;100.00
26915;BME280;14480;52.608;13.416;2022-10-17T15:45:32;111587.56;;;-144.42;100.00
26915;BME280;14480;52.608;13.416;2022-10-17T15:50:39;111587.56;;;-144.42;100.00
26915;BME280;14480;52.608;13.416;2022-10-17T15:55:46;111587.56;;;-144.42;100.00
26915;BME280;14480;52.608;13.416;2022-10-17T16:07:00;111587.56;;;-144.42;100.00
26915;BME280;14480;52.608;13.416;2022-10-17T16:12:04;111587.56;;;-144.42;100.00
26915;BME280;14480;52.608;13.416;2022-10-17T16:17:11;111587.56;;;-144.42;100.00
26915;BME280;14480;52.608;13.416;2022-10-17T16:22:21;111587.56;;;-144.42;100.00
26915;BME280;14480;52.608;13.416;2022-10-17T16:27:29;111587.56;;;-144.42;100.00
26915;BME280;14480;52.608;13.416;2022-10-17T16:32:32;111587.56;;;-144.42;100.00
26915;BME280;14480;52.608;13.416;2022-10-17T16:37:37;111587.56;;;-144.42;100.00
26915;BME280;14480;52.608;13.416;2022-10-17T16:42:42;111587.56;;;-144.42;100.00
26915;BME280;14480;52.608;13.416;2022-10-17T16:47:45;111587.56;;;-144.42;100.00
26915;BME280;14480;52.608;13.416;2022-10-17T16:52:55;111587.56;;;-144.42;100.00
26915;BME280;14480;52.608;13.416;2022-10-17T16:57:58;111587.56;;;-144.42;100.00
26915;BME280;14480;52.608;13.416;2022-10-17T17:03:02;111587.56;;;-144.42;100.00
26915;BME280;14480;52.608;13.416;2022-10-17T17:08:08;111587.56;;;-144.42;100.00
26915;BME280;14480;52.608;13.416;2022-10-17T17:13:13;111587.56;;;-144.42;100.00
26915;BME280;14480;52.608;13.416;2022-10-17T17:18:17;111587.56;;;-144.42;100.00
26915;BME280;14480;52.608;13.416;2022-10-17T17:23:27;111587.56;;;-144.42;100.00
26915;BME280;14480;52.608;13.416;2022-10-17T17:28:30;111587.56;;;-144.42;100.00
26915;BME280;14480;52.608;13.416;2022-10-17T17:33:36;111587.56;;;-144.42;100.00
26915;BME280;14480;52.608;13.416;2022-10-17T17:38:41;111587.56;;;-144.42;100.00
26915;BME280;14480;52.608;13.416;2022-10-17T17:43:45;111587.56;;;-144.42;100.00
26915;BME280;14480;52.608;13.416;2022-10-17T17:48:51;111587.56;;;-144.42;100.00
26915;BME280;14480;52.608;13.416;2022-10-17T17:53:57;111587.56;;;-144.42;100.00
26915;BME280;14480;52.608;13.416;2022-10-17T17:59:02;111587.56;;;-144.42;100.00
26915;BME280;14480;52.608;13.416;2022-10-17T18:04:11;111587.56;;;-144.42;100.00
26915;BME280;14480;52.608;13.416;2022-10-17T18:09:16;111587.56;;;-144.42;100.00
26915;BME280;14480;52.608;13.416;2022-10-17T18:14:21;111587.56;;;-144.42;100.00
26915;BME280;14480;52.608;13.416;2022-10-17T18:19:25;111587.56;;;-144.42;100.00
26915;BME280;14480;52.608;13.416;2022-10-17T18:24:31;111587.56;;;-144.42;100.00
26915;BME280;14480;52.608;13.416;2022-10-17T18:29:37;111587.56;;;-144.42;100.00
26915;BME280;14480;52.608;13.416;2022-10-17T18:34:44;111587.56;;;-144.42;100.00
26915;BME280;14480;52.608;13.416;2022-10-17T18:39:59;111587.56;;;-144.42;100.00
26915;BME280;14480;52.608;13.416;2022-10-17T18:45:05;111587.56;;;-144.42;100.00
26915;BME280;14480;52.608;13.416;2022-10-17T18:50:09;111587.56;;;-144.42;100.00
26915;BME280;14480;52.608;13.416;2022-10-17T18:55:15;111587.56;;;-144.42;100.00
26915;BME280;14480;52.608;13.416;2022-10-17T19:00:20;111587.56;;;-144.42;100.00
26915;BME280;14480;52.608;13.416;2022-10-17T19:05:28;111587.56;;;-144.42;100.00
26915;BME280;14480;52.608;13.416;2022-10-17T19:10:38;111587.56;;;-144.42;100.00
26915;BME280;14480;52.608;13.416;2022-10-17T19:15:44;111587.56;;;-144.42;100.00
26915;BME280;14480;52.608;13.416;2022-10-17T19:20:48;111587.56;;;-144.42;100.00
26915;BME280;14480;52.608;13.416;2022-10-17T19:26:01;111587.56;;;-144.42;100.00
26915;BME280;14480;52.608;13.416;2022-10-17T19:31:05;111587.56;;;-144.42;100.00
26915;BME280;14480;52.608;13.416;2022-10-17T19:36:19;111587.56;;;-144.42;100.00
26915;BME280;14480;52.608;13.416;2022-10-17T19:41:26;111587.56;;;-144.42;100.00
26915;BME280;14480;52.608;13.416;2022-10-17T19:46:30;111587.56;;;-144.42;100.00
26915;BME280;14480;52.608;13.416;2022-10-17T19:51:34;111587.56;;;-144.42;100.00
26915;BME280;14480;52.608;13.416;2022-10-17T19:56:40;111587.56;;;-144.42;100.00
26915;BME280;14480;52.608;13.416;2022-10-17T20:01:44;111587.56;;;-144.42;100.00
26915;BME280;14480;52.608;13.416;2022-10-17T20:06:48;111587.56;;;-144.42;100.00
26915;BME280;14480;52.608;13.416;2022-10-17T20:11:55;111587.56;;;-144.42;100.00
26915;BME280;14480;52.608;13.416;2022-10-17T20:16:59;111587.56;;;-144.42;100.00
26915;BME280;14480;52.608;13.416;2022-10-17T20:22:04;111587.56;;;-144.42;100.00
26915;BME280;14480;52.608;13.416;2022-10-17T20:27:11;111587.56;;;-144.42;100.00
26915;BME280;14480;52.608;13.416;2022-10-17T20:32:20;111587.56;;;-144.42;100.00
26915;BME280;14480;52.608;13.416;2022-10-17T20:37:24;111587.56;;;-144.42;100.00
26915;BME280;14480;52.608;13.416;2022-10-17T20:42:29;111587.56;;;-144.42;100.00
26915;BME280;14480;52.608;13.416;2022-10-17T20:47:33;111587.56;;;-144.42;100.00
26915;BME280;14480;52.608;13.416;2022-10-17T20:52:49;111587.56;;;-144.42;100.00
26915;BME280;14480;52.608;13.416;2022-10-17T20:58:13;111587.56;;;-144.42;100.00
26915;BME280;14480;52.608;13.416;2022-10-17T21:03:17;111587.56;;;-144.42;100.00
26915;BME280;14480;52.608;13.416;2022-10-17T21:08:20;111587.56;;;-144.42;100.00
26915;BME280;14480;52.608;13.416;2022-10-17T21:13:25;111587.56;;;-144.42;100.00
26915;BME280;14480;52.608;13.416;2022-10-17T21:18:28;111587.56;;;-144.42;100.00
26915;BME280;14480;52.608;13.416;2022-10-17T21:23:32;111587.56;;;-144.42;100.00
26915;BME280;14480;52.608;13.416;2022-10-17T21:28:37;111587.56;;;-144.42;100.00
26915;BME280;14480;52.608;13.416;2022-10-17T21:33:42;111587.56;;;-144.42;100.00
26915;BME280;14480;52.608;13.416;2022-10-17T21:38:47;111587.56;;;-144.42;100.00
26915;BME280;14480;52.608;13.416;2022-10-17T21:43:53;111587.56;;;-144.42;100.00
26915;BME280;14480;52.608;13.416;2022-10-17T21:49:00;111587.56;;;-144.42;100.00
26915;BME280;14480;52.608;13.416;2022-10-17T21:54:03;111587.56;;;-144.42;100.00
26915;BME280;14480;52.608;13.416;2022-10-17T21:59:09;111587.56;;;-144.42;100.00
